Aviation Digital Data Service (ADDS)

Output produced by METARs form (1822 UTC 26 September 2017)
found at http://aviationweather.gov/adds/metars/
 
KPQI 261725Z 2618/2718 31009KT P6SM SCT050 
     FM270600 13006KT P6SM BKN025 
     FM271100 15007KT P6SM BKN012